Time;durP1;ratioP1;P1;durP2;ratioP2;P2;SDS_P1;SDS_P2;PMS_P1;PMS_P2;Temp;Humidity;BMP_temperature;BMP_pressure;BME280_temperature;BME280_humidity;BME280_pressure;Samples;Min_cycle;Max_cycle;Signal;HPM_P1;HPM_P2
2022/01/16 00:01:20;;;;;;;;;87.00;64.75;;;;;1.97;82.74;100194.78;5111949;27;45399;-76
2022/01/16 00:06:30;;;;;;;;;84.50;62.00;;;;;1.96;82.82;100198.25;5102545;27;45368;-76
2022/01/16 00:08:55;;;;;;;;;79.75;62.75;;;;;1.95;82.89;100193.91;5101195;27;45563;-76
2022/01/16 00:11:21;;;;;;;;;80.00;62.75;;;;;1.93;83.05;100183.47;5111179;27;45460;-76
2022/01/16 00:13:46;;;;;;;;;79.25;59.25;;;;;1.92;82.93;100154.84;5113585;27;45459;-76
2022/01/16 00:16:13;;;;;;;;;79.75;60.25;;;;;1.92;82.83;100165.25;5118516;27;45534;-76
2022/01/16 00:18:52;;;;;;;;;78.25;62.50;;;;;1.89;82.83;100197.28;5118772;27;45410;-76
2022/01/16 00:21:30;;;;;;;;;71.75;59.00;;;;;1.90;83.14;100186.03;5097876;27;45534;-76
2022/01/16 00:23:55;;;;;;;;;73.00;56.00;;;;;1.89;83.04;100167.81;5088805;27;45525;-76
2022/01/16 00:26:22;;;;;;;;;71.50;55.50;;;;;1.90;83.01;100161.75;5108350;27;45344;-76
2022/01/16 00:28:49;;;;;;;;;77.50;59.25;;;;;1.89;83.13;100163.50;5102534;27;46157;-76
2022/01/16 00:31:15;;;;;;;;;68.00;54.75;;;;;1.89;83.23;100212.88;5115503;27;45391;-76
2022/01/16 00:33:44;;;;;;;;;68.50;55.50;;;;;1.88;83.46;100166.94;5102169;27;45336;-76
2022/01/16 00:36:10;;;;;;;;;72.00;56.50;;;;;1.88;83.31;100198.13;5118294;27;45528;-77
2022/01/16 00:38:42;;;;;;;;;76.25;60.50;;;;;1.86;83.16;100197.25;5117760;27;46526;-76
2022/01/16 00:41:08;;;;;;;;;79.25;59.50;;;;;1.85;83.33;100242.28;5100848;27;45371;-76
2022/01/16 00:43:33;;;;;;;;;74.75;60.25;;;;;1.80;83.87;100243.09;5100781;27;45518;-76
2022/01/16 00:45:59;;;;;;;;;79.25;63.00;;;;;1.77;83.51;100245.66;5117929;27;45475;-76
2022/01/16 00:48:24;;;;;;;;;76.75;59.75;;;;;1.72;83.79;100230.88;5103933;27;45491;-76
2022/01/16 00:50:50;;;;;;;;;79.00;60.00;;;;;1.67;83.57;100242.97;5112890;27;45475;-76
2022/01/16 00:53:15;;;;;;;;;78.25;62.50;;;;;1.65;84.43;100236.84;5098280;27;45468;-76
2022/01/16 00:55:41;;;;;;;;;73.25;56.50;;;;;1.64;84.53;100245.50;5112443;27;45484;-76
2022/01/16 00:58:06;;;;;;;;;70.25;58.75;;;;;1.61;84.38;100224.66;5100596;27;46066;-76
2022/01/16 01:00:33;;;;;;;;;80.00;60.75;;;;;1.61;84.41;100187.41;5116958;27;45415;-76
2022/01/16 01:03:02;;;;;;;;;85.00;64.50;;;;;1.59;84.76;100187.38;5105931;27;45394;-76
2022/01/16 01:05:27;;;;;;;;;83.75;65.00;;;;;1.59;84.48;100178.72;5111209;27;45392;-76
2022/01/16 01:07:53;;;;;;;;;89.75;69.00;;;;;1.55;84.53;100167.41;5104909;27;46482;-76
2022/01/16 01:10:24;;;;;;;;;87.75;68.75;;;;;1.57;85.02;100159.63;5114578;27;45365;-76
2022/01/16 01:12:54;;;;;;;;;90.50;71.75;;;;;1.55;85.47;100171.72;5104422;27;45458;-77
2022/01/16 01:15:26;;;;;;;;;89.50;65.75;;;;;1.55;85.49;100202.91;5107617;27;46285;-76
2022/01/16 01:17:53;;;;;;;;;82.25;65.75;;;;;1.57;85.24;100227.19;5096704;27;45791;-76
2022/01/16 01:20:20;;;;;;;;;92.75;69.75;;;;;1.55;85.45;100242.75;5114513;27;45615;-76
2022/01/16 01:22:50;;;;;;;;;88.50;65.00;;;;;1.54;85.70;100246.22;5103800;27;45435;-76
2022/01/16 01:25:17;;;;;;;;;82.50;62.75;;;;;1.55;85.18;100244.50;5116981;27;45475;-76
2022/01/16 01:27:44;;;;;;;;;76.00;60.25;;;;;1.53;85.47;100256.56;5116595;27;45482;-76
2022/01/16 01:30:15;;;;;;;;;70.25;57.75;;;;;1.55;85.67;100275.66;5108097;27;45410;-76
2022/01/16 01:32:42;;;;;;;;;79.50;58.50;;;;;1.57;85.49;100284.38;5096580;27;45432;-76
2022/01/16 01:35:12;;;;;;;;;70.00;55.50;;;;;1.58;85.68;100261.00;5110506;27;45495;-76
2022/01/16 01:37:37;;;;;;;;;122.50;100.75;;;;;1.70;87.54;100262.88;5115893;27;45449;-77
2022/01/16 01:40:05;;;;;;;;;118.25;105.00;;;;;2.04;86.98;100274.59;5117041;27;45463;-76
2022/01/16 01:42:35;;;;;;;;;95.50;69.50;;;;;2.35;85.16;100283.66;5085305;27;45405;-76
2022/01/16 01:53:15;;;;;;;;;74.50;58.00;;;;;2.67;81.55;100320.47;5096627;27;45486;-76
2022/01/16 01:55:43;;;;;;;;;122.25;108.00;;;;;2.57;81.77;100324.69;5084039;27;45392;-76
2022/01/16 01:58:10;;;;;;;;;72.25;55.50;;;;;2.50;81.81;100316.81;5113698;27;46288;-76
2022/01/16 02:00:36;;;;;;;;;69.50;55.50;;;;;2.44;81.99;100313.28;5116255;27;45418;-76
2022/01/16 02:03:13;;;;;;;;;68.50;55.25;;;;;2.36;81.81;100309.69;5103895;27;45450;-76
2022/01/16 02:05:41;;;;;;;;;77.75;54.75;;;;;2.28;81.66;100307.88;5116342;27;45320;-76
2022/01/16 02:08:07;;;;;;;;;68.50;54.50;;;;;2.21;81.73;100319.91;5102388;27;46530;-76
2022/01/16 02:10:34;;;;;;;;;76.75;57.75;;;;;2.13;81.71;100307.69;5108620;27;45562;-76
2022/01/16 02:13:04;;;;;;;;;73.25;56.75;;;;;2.06;82.07;100298.91;5096476;27;45348;-76
2022/01/16 02:31:45;;;;;;;;;76.75;59.00;;;;;1.69;82.77;100308.81;5107575;27;45368;-76
2022/01/16 02:34:32;;;;;;;;;71.00;56.25;;;;;1.67;83.18;100307.06;5115897;27;45458;-76
2022/01/16 02:37:01;;;;;;;;;68.50;54.00;;;;;1.60;83.10;100300.88;5086086;27;45626;-76
2022/01/16 02:39:29;;;;;;;;;73.25;56.50;;;;;1.56;83.39;100293.88;5090800;27;47571;-76
2022/01/16 02:41:57;;;;;;;;;73.00;57.00;;;;;1.52;83.51;100297.28;5116559;27;45276;-76
2022/01/16 02:44:41;;;;;;;;;70.75;54.75;;;;;1.50;83.15;100292.94;5115360;27;45467;-76
2022/01/16 02:47:11;;;;;;;;;66.00;52.75;;;;;1.47;83.45;100296.38;5111165;27;45378;-76
2022/01/16 02:49:37;;;;;;;;;68.75;56.75;;;;;1.44;83.73;100293.72;5101821;27;46258;-76
2022/01/16 02:52:06;;;;;;;;;73.75;54.75;;;;;1.43;83.77;100291.09;5115966;27;45422;-76
2022/01/16 02:54:37;;;;;;;;;73.50;55.50;;;;;1.40;83.91;100290.19;5107237;27;45367;-76
2022/01/16 02:57:04;;;;;;;;;71.00;54.75;;;;;1.37;83.87;100284.94;5102405;27;45421;-76
2022/01/16 02:59:30;;;;;;;;;64.00;51.25;;;;;1.36;84.06;100295.31;5106356;27;45487;-76
2022/01/16 03:01:56;;;;;;;;;66.50;53.00;;;;;1.32;83.98;100290.94;5115779;27;45452;-76
2022/01/16 03:04:21;;;;;;;;;67.50;54.25;;;;;1.30;84.53;100285.72;5115079;27;45349;-76
2022/01/16 03:06:47;;;;;;;;;69.25;54.00;;;;;1.29;84.47;100281.38;5115838;27;45417;-76
2022/01/16 03:09:14;;;;;;;;;72.00;54.50;;;;;1.29;84.47;100280.50;5114869;27;45488;-76
2022/01/16 03:11:48;;;;;;;;;63.75;50.00;;;;;1.28;84.59;100290.00;5116111;27;45422;-76
2022/01/16 03:14:17;;;;;;;;;67.25;55.25;;;;;1.27;84.73;100285.66;5115398;27;45529;-76
2022/01/16 03:16:48;;;;;;;;;74.50;59.00;;;;;1.26;84.36;100270.03;5113027;27;45432;-76
2022/01/16 03:22:02;;;;;;;;;70.50;56.00;;;;;1.23;84.86;100270.88;5101404;27;45539;-75
2022/01/16 03:24:41;;;;;;;;;71.50;58.00;;;;;1.23;84.42;100276.06;5105542;27;45475;-76
2022/01/16 03:27:10;;;;;;;;;77.50;58.50;;;;;1.22;84.57;100276.03;5105666;27;45348;-76
2022/01/16 03:29:37;;;;;;;;;70.00;56.50;;;;;1.19;84.60;100271.66;5103018;27;45523;-76
2022/01/16 03:32:05;;;;;;;;;76.00;57.00;;;;;1.20;84.75;100278.59;5094959;27;45349;-76
2022/01/16 03:34:31;;;;;;;;;72.50;57.75;;;;;1.19;84.66;100268.19;5102914;27;45375;-76
2022/01/16 03:36:56;;;;;;;;;62.00;49.50;;;;;1.17;84.98;100263.00;5095360;27;45384;-76
2022/01/16 03:39:22;;;;;;;;;71.00;53.75;;;;;1.18;84.89;100274.22;5104616;27;45663;-76
2022/01/16 03:41:47;;;;;;;;;67.50;52.00;;;;;1.16;85.15;100278.56;5105881;27;45382;-76
2022/01/16 03:44:13;;;;;;;;;69.50;56.50;;;;;1.13;85.31;100270.72;5103207;27;45481;-76
2022/01/16 03:46:41;;;;;;;;;69.50;56.50;;;;;1.11;84.92;100264.59;5095944;27;45541;-76
2022/01/16 03:49:16;;;;;;;;;61.50;51.50;;;;;1.10;85.21;100276.72;5102834;27;46386;-75
2022/01/16 03:51:44;;;;;;;;;66.75;54.25;;;;;1.06;84.76;100277.50;5119237;27;45473;-76
2022/01/16 03:54:13;;;;;;;;;70.75;57.75;;;;;1.04;85.03;100284.41;5106750;27;45438;-76
2022/01/16 03:56:39;;;;;;;;;51.00;44.25;;;;;1.01;84.80;100293.00;5118647;27;45384;-76
2022/01/16 03:59:05;;;;;;;;;67.75;51.50;;;;;1.00;85.07;100299.06;5118618;27;46518;-76
2022/01/16 04:01:31;;;;;;;;;69.50;53.25;;;;;0.99;85.52;100292.13;5118869;27;45461;-76
2022/01/16 04:03:57;;;;;;;;;65.25;51.25;;;;;0.99;85.44;100302.50;5086142;27;45424;-76
2022/01/16 04:06:23;;;;;;;;;61.75;51.00;;;;;1.00;85.55;100299.06;5104850;27;45514;-76
2022/01/16 04:08:50;;;;;;;;;54.25;47.25;;;;;1.01;85.74;100308.56;5091954;27;46051;-76
2022/01/16 04:11:16;;;;;;;;;70.75;55.25;;;;;1.01;85.82;100307.69;5111975;27;45305;-76
2022/01/16 04:13:50;;;;;;;;;56.25;47.50;;;;;1.02;85.54;100312.06;5086867;27;45419;-76
2022/01/16 04:16:16;;;;;;;;;73.00;55.00;;;;;1.02;85.49;100305.13;5117954;27;45380;-76
2022/01/16 04:18:42;;;;;;;;;66.75;47.00;;;;;1.02;85.53;100307.72;5117618;27;46425;-76
2022/01/16 04:21:07;;;;;;;;;67.25;53.75;;;;;1.04;85.41;100310.34;5090251;27;45412;-75
2022/01/16 04:23:32;;;;;;;;;63.50;51.75;;;;;1.04;85.41;100300.84;5118099;27;45506;-76
2022/01/16 04:25:58;;;;;;;;;66.50;52.00;;;;;1.04;85.33;100302.56;5116381;27;45478;-76
2022/01/16 04:28:24;;;;;;;;;67.50;52.75;;;;;1.04;85.45;100308.63;5103126;27;45576;-76
2022/01/16 04:30:53;;;;;;;;;66.75;50.50;;;;;1.03;85.29;100287.84;5109979;27;45525;-76
2022/01/16 04:33:19;;;;;;;;;65.75;52.50;;;;;1.02;85.84;100293.88;5097852;27;45493;-76
2022/01/16 04:35:45;;;;;;;;;65.25;51.25;;;;;1.01;85.69;100293.00;5097925;27;45352;-76
2022/01/16 04:38:11;;;;;;;;;64.00;53.50;;;;;1.00;85.61;100301.66;5097828;27;45427;-76
2022/01/16 04:40:43;;;;;;;;;64.25;51.75;;;;;0.97;85.85;100306.81;5117074;27;45939;-76
2022/01/16 04:45:57;;;;;;;;;64.75;51.75;;;;;0.94;85.67;100311.94;5111608;27;45440;-76
2022/01/16 04:48:23;;;;;;;;;71.25;54.75;;;;;0.91;85.83;100309.28;5097374;27;46074;-76
2022/01/16 04:50:48;;;;;;;;;63.25;51.25;;;;;0.89;86.11;100305.78;5110389;27;45348;-76
2022/01/16 04:53:13;;;;;;;;;72.75;55.50;;;;;0.87;86.21;100306.59;5097952;27;45781;-76
2022/01/16 04:55:39;;;;;;;;;69.00;55.75;;;;;0.85;86.46;100305.69;5116673;27;45367;-76
2022/01/16 04:58:04;;;;;;;;;67.00;52.50;;;;;0.85;86.20;100303.97;5114459;27;46224;-76
2022/01/16 05:00:30;;;;;;;;;60.25;46.25;;;;;0.84;86.56;100309.16;5116511;27;45426;-76
2022/01/16 05:02:55;;;;;;;;;67.00;53.25;;;;;0.83;86.20;100310.88;5106286;27;45465;-76
2022/01/16 05:05:21;;;;;;;;;66.50;53.75;;;;;0.82;86.65;100311.72;5114687;27;45482;-76
2022/01/16 05:07:46;;;;;;;;;69.25;52.00;;;;;0.82;86.60;100310.84;5117631;27;45441;-76
2022/01/16 05:10:13;;;;;;;;;67.50;53.50;;;;;0.82;86.57;100319.50;5117733;27;45480;-76
2022/01/16 05:12:42;;;;;;;;;58.25;49.25;;;;;0.83;86.29;100328.19;5117674;27;45441;-75
2022/01/16 05:17:52;;;;;;;;;64.75;51.50;;;;;0.82;86.29;100340.28;5117818;27;45308;-76
2022/01/16 05:20:18;;;;;;;;;68.00;53.75;;;;;0.81;86.25;100341.13;5117280;27;45442;-76
2022/01/16 05:22:43;;;;;;;;;65.75;52.75;;;;;0.81;86.16;100355.81;5103854;27;45421;-76
2022/01/16 05:25:12;;;;;;;;;62.00;50.00;;;;;0.80;86.37;100354.94;5113144;27;45470;-76
2022/01/16 05:27:37;;;;;;;;;65.25;53.25;;;;;0.81;86.57;100361.88;5103199;27;46218;-76
2022/01/16 05:30:03;;;;;;;;;65.75;51.00;;;;;0.80;86.38;100367.91;5111365;27;45413;-76
2022/01/16 05:32:29;;;;;;;;;66.00;52.75;;;;;0.78;86.51;100382.59;5085266;27;45547;-75
2022/01/16 05:34:54;;;;;;;;;61.25;49.25;;;;;0.78;85.94;100381.72;5114778;27;45441;-76
2022/01/16 05:37:20;;;;;;;;;57.00;48.25;;;;;0.75;86.41;100382.53;5117475;27;45518;-76
2022/01/16 05:39:47;;;;;;;;;63.75;51.50;;;;;0.75;86.40;100384.25;5092076;27;45831;-76
2022/01/16 05:42:13;;;;;;;;;67.00;54.00;;;;;0.75;86.60;100392.91;5100896;27;45400;-76
2022/01/16 05:44:39;;;;;;;;;54.25;44.25;;;;;0.72;86.40;100390.25;5107891;27;45354;-76
2022/01/16 05:47:05;;;;;;;;;67.00;53.50;;;;;0.73;86.51;100398.91;5102948;27;46330;-76
2022/01/16 05:49:30;;;;;;;;;68.00;56.25;;;;;0.71;86.15;100393.69;5099752;27;45524;-76
2022/01/16 05:51:56;;;;;;;;;66.00;54.00;;;;;0.68;86.50;100404.88;5097604;27;45302;-76
2022/01/16 05:54:21;;;;;;;;;65.25;52.25;;;;;0.66;86.49;100410.91;5107473;27;45423;-76
2022/01/16 05:56:47;;;;;;;;;76.25;56.25;;;;;0.64;86.23;100413.47;5096350;27;46411;-76
2022/01/16 05:59:12;;;;;;;;;68.00;55.50;;;;;0.63;86.18;100426.41;5104284;27;45525;-76
2022/01/16 06:01:37;;;;;;;;;71.25;56.50;;;;;0.60;86.11;100427.22;5117624;27;45439;-76
2022/01/16 06:04:03;;;;;;;;;63.50;53.75;;;;;0.58;85.84;100418.50;5098411;27;45552;-75
2022/01/16 06:06:29;;;;;;;;;68.00;53.25;;;;;0.55;85.80;100431.41;5117048;27;45499;-76
2022/01/16 06:08:54;;;;;;;;;64.00;51.50;;;;;0.52;85.93;100425.28;5114496;27;45439;-76
2022/01/16 06:11:20;;;;;;;;;62.50;48.00;;;;;0.48;85.80;100431.28;5103037;27;45439;-76
2022/01/16 06:13:45;;;;;;;;;68.50;53.50;;;;;0.45;85.83;100434.66;5095675;27;45402;-75
2022/01/16 06:16:11;;;;;;;;;63.50;50.25;;;;;0.44;86.08;100432.03;5110215;27;46476;-76
2022/01/16 06:18:36;;;;;;;;;68.00;51.75;;;;;0.42;86.03;100429.41;5100695;27;45363;-76
2022/01/16 06:21:02;;;;;;;;;64.75;51.50;;;;;0.40;86.31;100435.41;5089138;27;45333;-75
2022/01/16 06:23:27;;;;;;;;;68.75;55.00;;;;;0.35;86.34;100435.28;5116569;27;45288;-75
2022/01/16 06:25:54;;;;;;;;;72.25;55.75;;;;;0.34;86.12;100449.97;5116055;27;45393;-75
2022/01/16 06:28:30;;;;;;;;;69.00;53.00;;;;;0.33;86.25;100455.16;5096087;27;45445;-76
2022/01/16 06:30:57;;;;;;;;;71.50;52.75;;;;;0.31;86.26;100462.03;5098790;27;45445;-75
2022/01/16 06:33:24;;;;;;;;;68.50;53.75;;;;;0.29;86.17;100462.00;5096823;27;45565;-75
2022/01/16 06:35:49;;;;;;;;;66.75;54.75;;;;;0.28;86.64;100472.31;5109188;27;45510;-76
2022/01/16 06:38:15;;;;;;;;;65.25;52.75;;;;;0.26;86.06;100471.41;5103963;27;45428;-76
2022/01/16 06:40:40;;;;;;;;;70.00;52.25;;;;;0.25;86.25;100480.91;5092197;27;45635;-76
2022/01/16 06:43:06;;;;;;;;;73.75;59.50;;;;;0.20;85.86;100484.22;5095566;27;45439;-75
2022/01/16 06:45:31;;;;;;;;;67.00;52.75;;;;;0.18;86.00;100489.38;5112938;27;45598;-76
2022/01/16 06:47:57;;;;;;;;;65.00;54.50;;;;;0.15;86.08;100494.50;5107241;27;45420;-76
2022/01/16 06:50:22;;;;;;;;;69.75;52.75;;;;;0.13;86.05;100488.41;5110414;27;45399;-76
2022/01/16 06:52:48;;;;;;;;;63.75;52.00;;;;;0.11;86.20;100491.81;5107451;27;45386;-75
2022/01/16 06:55:15;;;;;;;;;71.50;54.25;;;;;0.10;86.03;100505.59;5110419;27;45515;-76
2022/01/16 06:57:40;;;;;;;;;66.75;54.25;;;;;0.08;86.16;100515.94;5106261;27;45353;-76
2022/01/16 07:00:07;;;;;;;;;68.50;53.75;;;;;0.07;86.04;100515.91;5105576;27;45547;-75
2022/01/16 07:02:33;;;;;;;;;65.50;47.75;;;;;0.06;86.17;100530.56;5096049;27;45483;-75
2022/01/16 07:04:59;;;;;;;;;64.00;51.50;;;;;0.04;86.40;100531.38;5115395;27;45474;-76
2022/01/16 07:07:24;;;;;;;;;62.75;47.25;;;;;0.01;86.37;100539.94;5115938;27;45494;-76
2022/01/16 07:09:49;;;;;;;;;70.50;55.75;;;;;0.00;86.42;100544.25;5114789;27;45343;-76
2022/01/16 07:12:15;;;;;;;;;72.75;55.75;;;;;0.00;86.54;100539.06;5095682;27;45307;-76
2022/01/16 07:14:41;;;;;;;;;71.00;56.00;;;;;0.03;86.81;100538.25;5091063;27;45569;-72
2022/01/16 07:17:07;;;;;;;;;73.50;57.50;;;;;0.14;86.87;100533.38;5108262;27;45441;-76
2022/01/16 07:19:32;;;;;;;;;71.00;53.50;;;;;0.21;86.55;100540.44;5100425;27;45226;-77
2022/01/16 07:21:58;;;;;;;;;71.25;56.50;;;;;0.27;86.31;100540.59;5096160;27;45437;-77
2022/01/16 07:24:23;;;;;;;;;73.25;56.75;;;;;0.33;86.08;100526.06;5108973;27;45521;-75
2022/01/16 07:26:48;;;;;;;;;77.50;57.25;;;;;0.37;85.94;100528.69;5102615;27;45328;-78
2022/01/16 07:29:14;;;;;;;;;74.00;58.25;;;;;0.41;85.79;100546.09;5095695;27;45366;-77
2022/01/16 07:31:40;;;;;;;;;71.50;55.75;;;;;0.43;85.54;100534.06;5108168;27;45476;-78
2022/01/16 07:34:06;;;;;;;;;79.00;59.00;;;;;0.44;85.49;100533.22;5096968;27;46273;-77
2022/01/16 07:36:32;;;;;;;;;70.00;58.00;;;;;0.45;85.42;100534.97;5103116;27;45448;-78
2022/01/16 07:38:57;;;;;;;;;66.75;53.50;;;;;0.47;85.31;100518.59;5083517;27;45471;-78
2022/01/16 07:41:23;;;;;;;;;78.00;60.00;;;;;0.47;85.45;100521.19;5115166;27;45586;-79
2022/01/16 07:43:48;;;;;;;;;70.50;55.50;;;;;0.49;85.34;100524.69;5105678;27;45559;-78
2022/01/16 07:46:16;;;;;;;;;75.75;56.75;;;;;0.52;85.43;100522.16;5108247;27;45442;-77
2022/01/16 07:48:41;;;;;;;;;70.50;57.00;;;;;0.56;85.25;100504.94;5096628;27;45402;-77
2022/01/16 07:51:07;;;;;;;;;77.50;56.75;;;;;0.57;85.25;100504.97;5076512;27;45411;-77
2022/01/16 07:53:32;;;;;;;;;76.75;58.75;;;;;0.60;85.04;100509.38;5108491;27;45568;-77
2022/01/16 07:55:57;;;;;;;;;68.25;56.50;;;;;0.63;85.24;100507.72;5083832;27;45206;-77
2022/01/16 07:58:23;;;;;;;;;77.50;58.25;;;;;0.67;85.31;100508.66;5111918;27;45320;-77
2022/01/16 08:00:48;;;;;;;;;65.00;52.25;;;;;0.72;85.14;100509.63;5107046;27;45642;-77
2022/01/16 08:03:15;;;;;;;;;76.50;55.50;;;;;0.75;84.85;100516.59;5095487;27;46619;-77
2022/01/16 08:05:40;;;;;;;;;71.00;56.75;;;;;0.80;85.00;100522.78;5106202;27;45488;-77
2022/01/16 08:08:05;;;;;;;;;70.25;57.25;;;;;0.84;85.04;100519.41;5102049;27;46034;-76
2022/01/16 08:10:31;;;;;;;;;74.25;59.00;;;;;0.88;85.04;100521.22;5103536;27;45448;-77
2022/01/16 08:12:58;;;;;;;;;78.00;59.75;;;;;0.91;84.61;100529.06;5092958;27;45496;-77
2022/01/16 08:15:24;;;;;;;;;72.50;58.50;;;;;0.96;84.36;100522.25;5102624;27;45512;-77
2022/01/16 08:17:49;;;;;;;;;71.00;55.50;;;;;1.00;84.23;100527.56;5099229;27;45544;-77
2022/01/16 08:20:14;;;;;;;;;75.50;58.75;;;;;1.04;84.43;100525.88;5101969;27;45640;-77
2022/01/16 08:22:40;;;;;;;;;70.00;54.75;;;;;1.08;84.36;100530.28;5094570;27;46588;-77
2022/01/16 08:25:06;;;;;;;;;73.50;56.75;;;;;1.14;84.21;100538.22;5114780;27;45566;-77
2022/01/16 08:27:32;;;;;;;;;65.75;53.75;;;;;1.18;84.32;100545.22;5100701;27;45546;-77
2022/01/16 08:29:57;;;;;;;;;69.75;54.75;;;;;1.23;83.92;100541.00;5098852;27;45533;-77
2022/01/16 08:32:23;;;;;;;;;70.50;55.25;;;;;1.28;83.95;100534.19;5096933;27;46279;-77
2022/01/16 08:34:48;;;;;;;;;72.00;56.50;;;;;1.34;83.39;100546.41;5097817;27;45301;-77
2022/01/16 08:37:14;;;;;;;;;71.00;56.00;;;;;1.38;83.44;100548.22;5097682;27;45487;-77
2022/01/16 08:39:40;;;;;;;;;68.25;54.75;;;;;1.40;83.44;100555.19;5100321;27;45379;-77
2022/01/16 08:42:06;;;;;;;;;74.75;54.50;;;;;1.43;82.95;100558.69;5104267;27;46317;-77
2022/01/16 08:44:31;;;;;;;;;63.50;51.50;;;;;1.43;82.65;100543.09;5107431;27;45415;-77
2022/01/16 08:46:57;;;;;;;;;72.50;59.75;;;;;1.42;82.56;100546.56;5114779;27;45371;-77
2022/01/16 08:49:22;;;;;;;;;70.00;57.25;;;;;1.40;82.68;100550.00;5098002;27;45970;-77
2022/01/16 08:51:48;;;;;;;;;68.50;55.00;;;;;1.40;81.97;100547.41;5108514;27;46502;-77
2022/01/16 08:54:13;;;;;;;;;63.25;50.75;;;;;1.39;81.62;100553.44;5086217;27;45577;-76
2022/01/16 08:56:39;;;;;;;;;70.75;56.50;;;;;1.33;81.15;100548.13;5117259;27;45733;-77
2022/01/16 08:59:04;;;;;;;;;71.50;58.75;;;;;1.29;81.04;100553.22;5102502;27;45457;-77
2022/01/16 09:01:30;;;;;;;;;71.25;56.00;;;;;1.22;80.82;100552.22;5112826;27;46442;-77
2022/01/16 09:03:55;;;;;;;;;69.25;57.00;;;;;1.15;81.10;100558.16;5084219;27;45479;-77
2022/01/16 09:06:21;;;;;;;;;74.75;56.75;;;;;1.09;80.90;100550.22;5117202;27;45405;-77
2022/01/16 09:08:47;;;;;;;;;65.75;53.50;;;;;1.04;81.16;100549.25;5096688;27;45516;-77
2022/01/16 09:11:12;;;;;;;;;68.25;56.25;;;;;1.03;81.54;100561.34;5117615;27;45411;-77
2022/01/16 09:13:40;;;;;;;;;73.25;56.75;;;;;1.05;81.47;100561.38;5098814;27;46209;-77
2022/01/16 09:16:07;;;;;;;;;71.00;52.75;;;;;1.08;82.01;100563.19;5117565;27;45474;-77
2022/01/16 09:18:33;;;;;;;;;70.50;54.50;;;;;1.12;82.18;100567.59;5112647;27;45325;-77
2022/01/16 09:21:00;;;;;;;;;76.00;59.25;;;;;1.18;82.04;100567.69;5085024;27;46408;-77
2022/01/16 09:23:25;;;;;;;;;54.00;44.50;;;;;1.23;82.33;100566.97;5116643;27;45388;-77
2022/01/16 09:25:51;;;;;;;;;74.00;58.75;;;;;1.29;82.42;100576.63;5117328;27;45372;-77
2022/01/16 09:28:16;;;;;;;;;63.50;50.75;;;;;1.37;82.29;100581.09;5103226;27;45517;-77
2022/01/16 09:30:42;;;;;;;;;68.50;53.75;;;;;1.42;82.38;100583.81;5109711;27;46332;-77
2022/01/16 09:33:08;;;;;;;;;72.25;57.00;;;;;1.51;82.23;100583.97;5116770;27;45386;-77
2022/01/16 09:35:33;;;;;;;;;71.00;56.50;;;;;1.57;82.23;100591.91;5117561;27;45433;-76
2022/01/16 09:38:03;;;;;;;;;70.75;57.25;;;;;1.66;82.11;100583.41;5110989;27;45387;-77
2022/01/16 09:40:29;;;;;;;;;73.25;57.00;;;;;1.72;82.03;100586.13;5096656;27;45396;-77
2022/01/16 09:42:55;;;;;;;;;73.75;60.25;;;;;1.78;81.72;100591.44;5096314;27;45451;-78
2022/01/16 09:45:21;;;;;;;;;72.00;55.50;;;;;1.82;81.74;100597.59;5091979;27;45503;-77
2022/01/16 09:47:47;;;;;;;;;74.75;60.25;;;;;1.88;81.66;100603.75;5095407;27;45391;-77
2022/01/16 09:50:17;;;;;;;;;66.25;55.50;;;;;1.94;81.63;100601.28;5096445;27;45693;-77
2022/01/16 09:52:44;;;;;;;;;81.50;60.75;;;;;2.00;81.08;100600.53;5096190;27;45526;-77
2022/01/16 09:55:11;;;;;;;;;76.00;58.00;;;;;2.04;81.03;100602.31;5091678;27;45441;-77
2022/01/16 09:57:37;;;;;;;;;77.50;59.00;;;;;2.11;81.22;100609.38;5101477;27;45368;-77
2022/01/16 10:00:05;;;;;;;;;75.50;60.00;;;;;2.14;80.89;100599.03;5083514;27;47489;-77
2022/01/16 10:02:30;;;;;;;;;75.50;61.00;;;;;2.14;80.37;100600.75;5096203;27;45440;-77
2022/01/16 10:04:56;;;;;;;;;74.75;58.50;;;;;2.17;80.58;100609.50;5095766;27;45440;-77
2022/01/16 10:07:21;;;;;;;;;63.50;52.50;;;;;2.22;80.46;100607.84;5077806;27;45486;-77
2022/01/16 10:10:12;;;;;;;;;68.75;55.75;;;;;2.27;80.49;100603.59;5096251;27;45525;-77
2022/01/16 10:12:45;;;;;;;;;73.00;56.25;;;;;2.31;80.40;100600.19;5096067;27;45382;-77
2022/01/16 10:15:20;;;;;;;;;65.50;51.75;;;;;2.42;81.11;100597.75;5109347;27;45392;-77
2022/01/16 10:17:48;;;;;;;;;68.50;56.00;;;;;2.57;80.23;100595.41;5096161;27;45479;-77
2022/01/16 10:20:16;;;;;;;;;79.00;57.25;;;;;2.62;79.63;100598.09;5077147;27;45791;-77
2022/01/16 10:22:49;;;;;;;;;65.25;52.50;;;;;2.65;79.50;100599.03;5110509;27;45524;-77
2022/01/16 10:25:17;;;;;;;;;68.00;56.25;;;;;2.67;79.84;100592.13;5116675;27;45443;-78
2022/01/16 10:27:45;;;;;;;;;79.75;59.75;;;;;2.70;79.74;100589.53;5100755;27;45511;-77
2022/01/16 10:30:14;;;;;;;;;75.25;59.75;;;;;2.71;79.17;100585.19;5095256;27;45471;-77
2022/01/16 10:32:45;;;;;;;;;77.50;59.75;;;;;2.72;79.21;100584.34;5109291;27;45331;-77
2022/01/16 10:35:22;;;;;;;;;76.25;59.00;;;;;2.74;78.99;100582.66;5095655;27;45395;-77
2022/01/16 10:37:59;;;;;;;;;72.75;58.00;;;;;2.77;79.10;100585.31;5095497;27;45433;-77
2022/01/16 10:40:50;;;;;;;;;71.75;56.00;;;;;2.83;78.74;100577.59;5095683;27;45334;-77
2022/01/16 10:43:17;;;;;;;;;70.75;53.75;;;;;2.87;78.75;100575.88;5095191;27;45672;-78
2022/01/16 10:45:44;;;;;;;;;72.50;57.50;;;;;2.91;78.74;100581.16;5095414;27;45240;-77
2022/01/16 10:48:12;;;;;;;;;75.00;59.00;;;;;2.96;78.64;100576.91;5090867;27;45875;-78
2022/01/16 10:50:45;;;;;;;;;74.25;55.75;;;;;3.04;78.54;100579.59;5098491;27;45384;-77
2022/01/16 10:53:19;;;;;;;;;74.00;56.50;;;;;3.11;78.78;100569.28;5094695;27;45378;-77
2022/01/16 10:55:52;;;;;;;;;73.00;57.50;;;;;3.18;78.83;100569.38;5095338;27;45367;-77
2022/01/16 10:58:30;;;;;;;;;71.75;56.50;;;;;3.25;78.41;100572.06;5101324;27;45348;-77
2022/01/16 11:01:03;;;;;;;;;73.75;58.00;;;;;3.31;78.15;100569.53;5095443;27;46035;-77
2022/01/16 11:03:46;;;;;;;;;71.50;56.50;;;;;3.36;78.42;100562.63;5095294;27;45405;-77
2022/01/16 11:06:15;;;;;;;;;73.50;53.75;;;;;3.45;78.16;100560.16;5095151;27;45278;-77
2022/01/16 11:08:52;;;;;;;;;71.00;56.25;;;;;3.51;77.96;100559.38;5081905;27;45379;-77
2022/01/16 11:11:19;;;;;;;;;72.00;57.00;;;;;3.58;78.10;100552.47;5101737;27;47467;-77
2022/01/16 11:13:45;;;;;;;;;66.75;50.25;;;;;3.63;77.51;100553.41;5094511;27;45359;-77
2022/01/16 11:16:11;;;;;;;;;70.75;52.75;;;;;3.67;77.52;100558.66;5095056;27;45446;-77
2022/01/16 11:18:38;;;;;;;;;68.50;53.25;;;;;3.74;77.48;100557.84;5095017;27;46156;-77
2022/01/16 11:26:11;;;;;;;;;69.50;54.75;;;;;3.93;77.29;100558.94;5095049;27;45455;-77
2022/01/16 11:28:38;;;;;;;;;73.25;57.25;;;;;3.99;77.26;100558.13;5094494;27;45360;-77
2022/01/16 11:31:05;;;;;;;;;72.75;55.00;;;;;4.02;76.75;100558.16;5094109;27;46074;-77
2022/01/16 11:33:33;;;;;;;;;70.00;55.75;;;;;4.04;76.80;100561.63;5094984;27;45375;-77
2022/01/16 11:36:02;;;;;;;;;72.00;55.33;;;;;4.06;77.30;100555.56;5094716;27;45507;-77
2022/01/16 11:38:31;;;;;;;;;68.75;56.00;;;;;4.09;76.91;100546.88;5094522;27;45666;-77
2022/01/16 11:41:01;;;;;;;;;69.25;54.50;;;;;4.11;77.17;100547.78;5094096;27;45459;-77
2022/01/16 11:43:38;;;;;;;;;79.25;61.75;;;;;4.14;77.38;100553.91;5075991;27;45565;-77
2022/01/16 11:46:09;;;;;;;;;72.50;56.25;;;;;4.17;76.88;100551.34;5094105;27;45420;-77
2022/01/16 11:48:43;;;;;;;;;71.00;56.25;;;;;4.19;76.60;100540.88;5094110;27;45446;-77
2022/01/16 11:51:38;;;;;;;;;70.00;55.25;;;;;4.26;76.65;100541.81;5102050;27;46609;-78
2022/01/16 11:54:11;;;;;;;;;71.50;55.50;;;;;4.30;76.51;100525.31;5114695;27;45507;-77
2022/01/16 11:56:42;;;;;;;;;71.00;55.25;;;;;4.36;76.19;100521.00;5108159;27;45537;-77
2022/01/16 11:59:11;;;;;;;;;68.75;55.25;;;;;4.42;76.08;100522.78;5075821;27;45573;-77